Terminal Aerodrome Forecast
Issued by NWS

Home | Current Version | Previous Version | Text Only | Print | Product List | Glossary On
Versions: 1 2 3 4 5 6 7 8 9 10 11 12 13 14 15 16
000
FTAK31 PANC 151740
TAFAIL
TAF
PAIL 151740Z 1518/1618 10026G38KT P6SM -SHRA SCT020 SCT030 OVC090
      TEMPO 1518/1520 BKN025
     FM160100 13014G22KT 4SM -SHRA BR BKN015 BKN025 OVC090
     FM160600 14005KT P6SM -SHRASN SCT015 SCT025 OVC050=

USA.gov is the U.S. government's official web portal to all federal, state and local government web resources and services.